Schedule Details


Flight Number: CTN433
Departure: Tegel (EDDT) at 16:00
Arrival: Kastela (LDSP) at 17:45
Route: GERGA UM725 HDO M725 LANUX DCT RADLY UN74 ROKSA UL868 GISER UL862 PALEZ L862 OKLAX

Weather Information
EDDT 251720Z 08006KT 040V130 CAVOK 29/13 Q1020 NOSIG
LDSP 251700Z 09005KT 060V120 9999 VCTS FEW040 FEW050CB 29/20 Q1015 TEMPO 05015KT TSRA
Schedule Frequency

Route Map